createdAt,value
2018-05-17T00:00:50.125Z,99.90
2018-05-17T00:03:17.587Z,99.90
2018-05-17T00:05:45.057Z,99.90
2018-05-17T00:08:12.520Z,99.90
2018-05-17T00:10:39.983Z,99.90
2018-05-17T00:13:07.440Z,99.90
2018-05-17T00:15:34.909Z,99.90
2018-05-17T00:18:02.360Z,99.90
2018-05-17T00:20:29.821Z,99.90
2018-05-17T00:22:57.273Z,99.90
2018-05-17T00:25:24.744Z,99.90
2018-05-17T00:27:52.211Z,99.90
2018-05-17T00:30:19.658Z,99.90
2018-05-17T00:32:47.122Z,99.90
2018-05-17T00:35:14.600Z,99.90
2018-05-17T00:37:42.056Z,99.90
2018-05-17T00:40:09.520Z,99.90
2018-05-17T00:42:36.992Z,99.90
2018-05-17T00:45:04.468Z,99.90
2018-05-17T00:47:31.951Z,99.90
2018-05-17T00:49:59.405Z,99.90
2018-05-17T00:52:26.921Z,99.90
2018-05-17T00:54:54.320Z,99.90
2018-05-17T00:57:21.781Z,99.90
2018-05-17T00:59:49.244Z,99.90
2018-05-17T01:02:16.720Z,99.90
2018-05-17T01:04:44.179Z,99.90
2018-05-17T01:07:11.638Z,99.90
2018-05-17T01:09:39.091Z,99.90
2018-05-17T01:12:06.543Z,99.90
2018-05-17T01:14:33.988Z,99.90
2018-05-17T01:17:01.446Z,99.90
2018-05-17T01:19:28.888Z,99.90
2018-05-17T01:21:56.363Z,99.90
2018-05-17T01:24:23.820Z,99.90
2018-05-17T01:26:51.283Z,99.90
2018-05-17T01:29:18.732Z,99.90
2018-05-17T01:31:46.971Z,99.90
2018-05-17T01:34:14.424Z,99.90
2018-05-17T01:36:53.823Z,99.90
2018-05-17T01:39:21.278Z,99.90
2018-05-17T01:41:49.513Z,99.90
2018-05-17T01:44:17.007Z,99.90
2018-05-17T01:46:45.245Z,99.90
2018-05-17T01:49:12.704Z,99.90
2018-05-17T01:51:40.159Z,99.90
2018-05-17T01:54:07.628Z,99.90
2018-05-17T01:56:35.080Z,99.90
2018-05-17T01:59:02.540Z,99.90
2018-05-17T02:01:29.998Z,99.90
2018-05-17T02:03:57.457Z,99.90
2018-05-17T02:06:24.920Z,99.90
2018-05-17T02:08:52.399Z,99.90
2018-05-17T02:11:19.844Z,99.90
2018-05-17T02:13:47.305Z,99.90
2018-05-17T02:16:14.752Z,99.90
2018-05-17T02:18:42.231Z,99.90
2018-05-17T02:21:09.677Z,99.90
2018-05-17T02:23:38.072Z,99.90
2018-05-17T02:26:05.526Z,99.90
2018-05-17T02:28:32.987Z,99.90
2018-05-17T02:31:00.456Z,99.90
2018-05-17T02:33:27.939Z,99.90
2018-05-17T02:35:55.392Z,99.90
2018-05-17T02:38:22.863Z,99.90
2018-05-17T02:40:50.311Z,99.90
2018-05-17T02:43:17.773Z,99.90
2018-05-17T02:45:45.242Z,99.90
2018-05-17T02:48:12.717Z,99.90
2018-05-17T02:50:40.181Z,99.90
2018-05-17T02:53:07.643Z,99.90
2018-05-17T02:55:35.094Z,99.90
2018-05-17T02:58:02.574Z,99.90
2018-05-17T03:00:30.023Z,99.90
2018-05-17T03:02:57.476Z,99.90
2018-05-17T03:05:24.918Z,99.90
2018-05-17T03:07:53.144Z,99.90
2018-05-17T03:10:20.605Z,99.90
2018-05-17T03:12:48.050Z,99.90
2018-05-17T03:15:15.498Z,99.90
2018-05-17T03:17:42.960Z,99.90
2018-05-17T03:20:10.429Z,99.90
2018-05-17T03:22:37.880Z,99.90
2018-05-17T03:25:05.339Z,99.90
2018-05-17T03:27:32.788Z,99.90
2018-05-17T03:30:01.012Z,99.90
2018-05-17T03:32:28.463Z,99.90
2018-05-17T03:34:55.926Z,99.90
2018-05-17T03:37:23.392Z,99.90
2018-05-17T03:39:50.865Z,99.90
2018-05-17T03:42:18.309Z,99.90
2018-05-17T03:44:45.772Z,99.90
2018-05-17T03:47:13.235Z,99.90
2018-05-17T03:49:40.690Z,99.90
2018-05-17T03:52:08.137Z,99.90
2018-05-17T03:54:36.364Z,99.90
2018-05-17T03:57:03.817Z,99.90
2018-05-17T03:59:31.295Z,99.90
2018-05-17T04:02:10.598Z,99.90
2018-05-17T04:04:49.933Z,99.90
2018-05-17T04:07:17.395Z,99.90
2018-05-17T04:09:44.858Z,99.90
2018-05-17T04:12:12.316Z,99.90
2018-05-17T04:14:39.772Z,99.90
2018-05-17T04:17:07.345Z,99.90
2018-05-17T04:19:34.806Z,99.90
2018-05-17T04:22:02.278Z,99.90
2018-05-17T04:24:29.765Z,99.90
2018-05-17T04:26:57.225Z,99.90
2018-05-17T04:29:25.449Z,99.90
2018-05-17T04:31:53.698Z,99.90
2018-05-17T04:34:21.141Z,99.90
2018-05-17T04:36:48.625Z,99.90
2018-05-17T04:39:16.092Z,99.90
2018-05-17T04:41:43.560Z,99.90
2018-05-17T04:44:11.011Z,99.90
2018-05-17T04:46:38.483Z,99.90
2018-05-17T04:49:05.941Z,99.90
2018-05-17T04:51:33.411Z,99.90
2018-05-17T04:54:00.882Z,99.90
2018-05-17T04:56:28.354Z,99.90
2018-05-17T04:58:56.564Z,99.90
2018-05-17T05:01:24.053Z,99.90
2018-05-17T05:03:51.509Z,99.90
2018-05-17T05:06:18.973Z,99.90
2018-05-17T05:08:46.433Z,99.90
2018-05-17T05:11:13.906Z,99.90
2018-05-17T05:13:42.127Z,99.90
2018-05-17T05:16:10.366Z,99.90
2018-05-17T05:18:37.817Z,99.90
2018-05-17T05:21:05.283Z,99.90
2018-05-17T05:23:32.742Z,99.90
2018-05-17T05:26:00.204Z,99.90
2018-05-17T05:28:27.666Z,99.90
2018-05-17T05:30:55.132Z,99.90
2018-05-17T05:33:22.602Z,99.90
2018-05-17T05:35:50.095Z,99.90
2018-05-17T05:38:17.545Z,99.90
2018-05-17T05:40:45.005Z,99.90
2018-05-17T05:43:12.575Z,99.90
2018-05-17T05:45:39.932Z,99.90
2018-05-17T05:48:07.425Z,99.90
2018-05-17T05:50:35.648Z,99.90
2018-05-17T05:53:03.121Z,99.90
2018-05-17T05:55:31.551Z,99.90
2018-05-17T05:57:59.777Z,99.90
2018-05-17T06:00:27.238Z,99.90
2018-05-17T06:02:54.697Z,99.90
2018-05-17T06:05:22.140Z,99.90
2018-05-17T06:07:49.601Z,99.90
2018-05-17T06:10:17.052Z,99.90
2018-05-17T06:12:44.513Z,99.90
2018-05-17T06:15:11.976Z,99.90
2018-05-17T06:17:39.453Z,99.90
2018-05-17T06:20:06.916Z,99.90
2018-05-17T06:22:34.384Z,99.90
2018-05-17T06:25:01.864Z,99.90
2018-05-17T06:27:30.096Z,99.90
2018-05-17T06:29:58.336Z,99.90
2018-05-17T06:32:25.808Z,99.90
2018-05-17T06:34:53.274Z,99.90
2018-05-17T06:37:20.748Z,99.90
2018-05-17T06:39:48.978Z,99.90
2018-05-17T06:42:16.520Z,99.90
2018-05-17T06:44:43.971Z,99.90
2018-05-17T06:47:12.200Z,99.90
2018-05-17T06:49:39.663Z,99.90
2018-05-17T06:52:07.141Z,99.90
2018-05-17T06:54:34.595Z,99.90
2018-05-17T06:57:02.078Z,99.90
2018-05-17T06:59:29.545Z,99.90
2018-05-17T07:01:57.775Z,99.90
2018-05-17T07:04:25.291Z,99.90
2018-05-17T07:06:52.720Z,99.90
2018-05-17T07:09:20.186Z,99.90
2018-05-17T07:11:47.651Z,99.90
2018-05-17T07:14:15.118Z,99.90
2018-05-17T07:16:42.588Z,99.90
2018-05-17T07:19:10.062Z,99.90
2018-05-17T07:21:37.543Z,99.90
2018-05-17T07:24:05.794Z,99.90
2018-05-17T07:26:33.233Z,99.90
2018-05-17T07:29:00.703Z,99.90
2018-05-17T07:31:28.219Z,99.90
2018-05-17T07:33:55.655Z,99.90
2018-05-17T07:36:23.095Z,99.90
2018-05-17T07:38:50.579Z,99.90
2018-05-17T07:41:18.048Z,99.90
2018-05-17T07:43:46.308Z,99.90
2018-05-17T07:46:13.759Z,99.90
2018-05-17T07:48:41.222Z,99.90
2018-05-17T07:51:08.675Z,99.90
2018-05-17T07:53:36.146Z,99.90
2018-05-17T07:56:03.598Z,99.90
2018-05-17T07:58:31.078Z,99.90
2018-05-17T08:00:58.538Z,99.90
2018-05-17T08:03:26.000Z,99.90
2018-05-17T08:05:53.464Z,99.90
2018-05-17T08:08:20.931Z,99.90
2018-05-17T08:10:48.404Z,99.90
2018-05-17T08:13:15.875Z,99.90
2018-05-17T08:15:44.134Z,99.90
2018-05-17T08:18:11.583Z,99.90
2018-05-17T08:20:39.033Z,99.90
2018-05-17T08:23:06.491Z,99.90
2018-05-17T08:25:33.981Z,99.90
2018-05-17T08:28:01.442Z,99.90
2018-05-17T08:30:29.686Z,99.90
2018-05-17T08:32:57.149Z,99.90
2018-05-17T08:35:24.609Z,99.90
2018-05-17T08:37:52.101Z,99.90
2018-05-17T08:40:19.575Z,99.90
2018-05-17T08:42:47.101Z,99.90
2018-05-17T08:45:14.567Z,99.90
2018-05-17T08:47:42.034Z,99.90
2018-05-17T08:50:09.532Z,99.90
2018-05-17T08:52:36.985Z,99.80
2018-05-17T08:55:04.518Z,99.90
2018-05-17T08:57:31.949Z,99.80
2018-05-17T09:00:00.191Z,99.70
2018-05-17T09:02:27.659Z,99.70
2018-05-17T09:04:55.142Z,99.90
2018-05-17T09:07:22.597Z,99.90
2018-05-17T09:09:50.068Z,99.90
2018-05-17T09:12:17.537Z,99.20
2018-05-17T09:14:45.784Z,99.90
2018-05-17T09:17:13.252Z,99.90
2018-05-17T09:19:40.723Z,99.80
2018-05-17T09:22:08.185Z,99.80
2018-05-17T09:24:35.668Z,99.40
2018-05-17T09:27:03.135Z,99.70
2018-05-17T09:29:31.365Z,99.90
2018-05-17T09:31:58.853Z,99.90
2018-05-17T09:34:26.323Z,99.90
2018-05-17T09:36:53.815Z,99.90
2018-05-17T09:39:21.274Z,99.90
2018-05-17T09:41:49.521Z,99.90
2018-05-17T09:44:17.005Z,99.90
2018-05-17T09:46:45.239Z,99.90
2018-05-17T09:49:12.708Z,99.90
2018-05-17T09:51:40.199Z,99.90
2018-05-17T09:54:07.669Z,99.90
2018-05-17T09:56:35.132Z,99.90
2018-05-17T09:59:03.356Z,99.90
2018-05-17T10:01:30.814Z,99.90
2018-05-17T10:03:58.272Z,99.90
2018-05-17T10:06:25.740Z,99.90
2018-05-17T10:08:53.276Z,99.90
2018-05-17T10:11:20.663Z,99.90
2018-05-17T10:13:48.132Z,99.90
2018-05-17T10:16:15.612Z,99.90
2018-05-17T10:18:43.077Z,99.90
2018-05-17T10:21:10.554Z,99.90
2018-05-17T10:23:38.005Z,99.80
2018-05-17T10:26:05.470Z,99.70
2018-05-17T10:28:32.956Z,99.60
2018-05-17T10:31:00.439Z,99.70
2018-05-17T10:33:28.668Z,99.90
2018-05-17T10:35:56.128Z,99.90
2018-05-17T10:38:24.369Z,99.30
2018-05-17T10:40:51.835Z,99.40
2018-05-17T10:43:19.319Z,99.80
2018-05-17T10:45:46.791Z,99.20
2018-05-17T10:48:14.263Z,99.40
2018-05-17T10:50:41.745Z,99.10
2018-05-17T10:53:09.216Z,99.30
2018-05-17T10:55:36.676Z,99.60
2018-05-17T10:58:04.144Z,98.90
2018-05-17T11:00:31.632Z,99.00
2018-05-17T11:02:59.865Z,99.40
2018-05-17T11:05:27.320Z,99.40
2018-05-17T11:07:54.780Z,98.50
2018-05-17T11:10:22.245Z,98.70
2018-05-17T11:12:49.721Z,99.00
2018-05-17T11:15:17.207Z,98.70
2018-05-17T11:17:44.648Z,98.30
2018-05-17T11:20:12.121Z,98.40
2018-05-17T11:22:39.589Z,98.40
2018-05-17T11:25:07.058Z,98.30
2018-05-17T11:27:35.298Z,97.40
2018-05-17T11:30:02.736Z,97.40
2018-05-17T11:32:30.202Z,97.20
2018-05-17T11:34:57.681Z,96.80
2018-05-17T11:37:25.147Z,97.40
2018-05-17T11:39:52.693Z,97.30
2018-05-17T11:42:20.084Z,97.80
2018-05-17T11:44:49.054Z,97.70
2018-05-17T11:47:16.517Z,97.70
2018-05-17T11:49:43.990Z,97.40
2018-05-17T11:52:11.485Z,98.20
2018-05-17T11:54:38.946Z,97.40
2018-05-17T11:57:06.409Z,97.60
2018-05-17T11:59:33.866Z,97.80
2018-05-17T12:02:01.329Z,97.10
2018-05-17T12:04:28.791Z,97.10
2018-05-17T12:06:56.256Z,97.20
2018-05-17T12:09:23.747Z,98.00
2018-05-17T12:11:51.979Z,97.40
2018-05-17T12:14:19.440Z,97.40
2018-05-17T12:16:46.896Z,96.80
2018-05-17T12:19:14.362Z,97.10
2018-05-17T12:21:41.802Z,98.10
2018-05-17T12:24:09.267Z,97.70
2018-05-17T12:26:36.718Z,97.30
2018-05-17T12:29:04.198Z,98.10
2018-05-17T12:31:31.655Z,97.40
2018-05-17T12:33:59.129Z,97.80
2018-05-17T12:36:26.583Z,97.40
2018-05-17T12:38:54.049Z,97.50
2018-05-17T12:41:21.532Z,97.60
2018-05-17T12:43:49.009Z,97.10
2018-05-17T12:46:17.268Z,97.10
2018-05-17T12:48:44.739Z,97.10
2018-05-17T12:51:12.193Z,97.30
2018-05-17T12:53:39.661Z,97.60
2018-05-17T12:56:07.113Z,97.70
2018-05-17T12:58:34.649Z,97.30
2018-05-17T13:01:02.046Z,97.60
2018-05-17T13:03:29.507Z,97.10
2018-05-17T13:05:56.977Z,97.70
2018-05-17T13:08:24.429Z,97.40
2018-05-17T13:10:51.906Z,97.30
2018-05-17T13:13:20.120Z,97.40
2018-05-17T13:15:48.349Z,97.60
2018-05-17T13:18:15.804Z,97.60
2018-05-17T13:20:43.290Z,97.70
2018-05-17T13:23:10.768Z,97.50
2018-05-17T13:25:38.224Z,97.10
2018-05-17T13:28:05.688Z,97.50
2018-05-17T13:30:33.165Z,97.40
2018-05-17T13:33:01.399Z,97.70
2018-05-17T13:35:28.881Z,97.70
2018-05-17T13:37:56.345Z,96.90
2018-05-17T13:40:23.819Z,97.10
2018-05-17T13:42:51.280Z,97.40
2018-05-17T13:45:18.758Z,96.20
2018-05-17T13:47:46.230Z,96.80
2018-05-17T13:50:13.684Z,95.90
2018-05-17T13:52:41.140Z,96.80
2018-05-17T13:55:08.634Z,95.80
2018-05-17T13:57:36.104Z,96.60
2018-05-17T14:00:03.574Z,96.80
2018-05-17T14:02:31.103Z,97.20
2018-05-17T14:04:58.507Z,97.70
2018-05-17T14:07:26.555Z,97.40
2018-05-17T14:09:54.790Z,96.90
2018-05-17T14:12:22.263Z,96.90
2018-05-17T14:14:49.727Z,97.40
2018-05-17T14:17:17.188Z,97.50
2018-05-17T14:19:44.639Z,97.30
2018-05-17T14:22:12.103Z,97.80
2018-05-17T14:24:39.560Z,97.10
2018-05-17T14:27:07.029Z,97.10
2018-05-17T14:29:34.486Z,97.50
2018-05-17T14:32:01.964Z,97.10
2018-05-17T14:34:29.411Z,97.10
2018-05-17T14:36:56.883Z,97.20
2018-05-17T14:39:24.424Z,97.40
2018-05-17T14:41:51.895Z,97.40
2018-05-17T14:44:20.135Z,96.60
2018-05-17T14:46:47.595Z,96.50
2018-05-17T14:49:15.055Z,96.50
2018-05-17T14:51:42.510Z,97.10
2018-05-17T14:54:10.741Z,96.90
2018-05-17T14:56:38.198Z,96.90
2018-05-17T14:59:06.408Z,96.80
2018-05-17T15:01:33.889Z,96.80
2018-05-17T15:04:02.102Z,96.20
2018-05-17T15:06:29.560Z,96.20
2018-05-17T15:08:57.132Z,96.10
2018-05-17T15:11:25.312Z,94.40
2018-05-17T15:13:53.592Z,95.90
2018-05-17T15:16:20.977Z,95.80
2018-05-17T15:18:49.206Z,94.80
2018-05-17T15:21:17.422Z,94.60
2018-05-17T15:23:45.670Z,95.00
2018-05-17T15:26:13.895Z,94.40
2018-05-17T15:28:41.347Z,94.40
2018-05-17T15:31:08.803Z,95.10
2018-05-17T15:33:36.257Z,94.80
2018-05-17T15:36:03.713Z,94.90
2018-05-17T15:38:31.185Z,94.90
2018-05-17T15:40:58.628Z,94.20
2018-05-17T15:43:26.108Z,93.90
2018-05-17T15:45:53.563Z,93.80
2018-05-17T15:48:21.026Z,94.00
2018-05-17T16:08:08.671Z,93.50
2018-05-17T16:10:36.128Z,93.50
2018-05-17T16:13:03.595Z,93.20
2018-05-17T16:15:31.946Z,91.80
2018-05-17T16:18:00.830Z,94.10
2018-05-17T16:20:28.311Z,94.10
2018-05-17T16:22:57.284Z,93.40
2018-05-17T16:25:24.742Z,93.40
2018-05-17T16:27:52.211Z,93.60
2018-05-17T16:30:19.684Z,93.00
2018-05-17T16:32:47.943Z,93.50
2018-05-17T16:35:16.143Z,93.00
2018-05-17T16:37:44.378Z,93.90
2018-05-17T16:40:12.684Z,93.80
2018-05-17T16:42:40.195Z,93.80
2018-05-17T16:45:07.617Z,93.20
2018-05-17T16:47:35.079Z,93.20
2018-05-17T16:50:02.554Z,93.60
2018-05-17T16:52:30.869Z,93.00
2018-05-17T16:54:59.041Z,92.50
2018-05-17T16:57:26.491Z,92.40
2018-05-17T16:59:53.969Z,92.90
2018-05-17T17:02:21.440Z,92.80
2018-05-17T17:04:49.692Z,92.90
2018-05-17T17:07:17.158Z,92.90
2018-05-17T17:09:44.622Z,92.60
2018-05-17T17:12:12.080Z,92.10
2018-05-17T17:14:39.541Z,92.00
2018-05-17T17:17:07.073Z,92.20
2018-05-17T17:19:34.515Z,93.10
2018-05-17T17:22:01.972Z,92.70
2018-05-17T17:24:30.198Z,93.00
2018-05-17T17:26:57.664Z,93.00
2018-05-17T17:29:25.127Z,93.20
2018-05-17T17:31:52.585Z,93.10
2018-05-17T17:34:20.149Z,93.20
2018-05-17T17:36:47.532Z,93.10
2018-05-17T17:39:14.993Z,93.20
2018-05-17T17:41:42.449Z,93.10
2018-05-17T17:44:09.898Z,93.70
2018-05-17T17:46:37.392Z,93.70
2018-05-17T17:49:04.854Z,93.80
2018-05-17T17:51:32.363Z,93.80
2018-05-17T17:53:59.827Z,93.90
2018-05-17T17:56:27.306Z,93.80
2018-05-17T17:58:54.758Z,94.10
2018-05-17T18:01:22.214Z,94.20
2018-05-17T18:03:49.677Z,94.50
2018-05-17T18:06:17.139Z,94.70
2018-05-17T18:08:44.632Z,95.10
2018-05-17T18:11:12.096Z,95.00
2018-05-17T18:13:40.340Z,95.20
2018-05-17T18:18:58.798Z,95.50
2018-05-17T18:21:26.264Z,95.50
2018-05-17T18:23:53.712Z,95.60
2018-05-17T18:26:21.945Z,95.90
2018-05-17T18:28:49.404Z,95.90
2018-05-17T18:31:16.862Z,96.00
2018-05-17T18:33:44.330Z,96.00
2018-05-17T18:36:11.797Z,96.20
2018-05-17T18:38:39.264Z,96.20
2018-05-17T18:41:06.744Z,96.70
2018-05-17T18:43:34.207Z,97.00
2018-05-17T18:46:01.673Z,97.40
2018-05-17T18:48:29.128Z,97.80
2018-05-17T18:50:56.609Z,97.40
2018-05-17T18:53:24.850Z,97.30
2018-05-17T18:55:52.395Z,97.30
2018-05-17T18:58:19.826Z,97.30
2018-05-17T19:00:47.288Z,97.50
2018-05-17T19:03:14.780Z,98.10
2018-05-17T19:05:42.287Z,97.60
2018-05-17T19:08:09.776Z,97.50
2018-05-17T19:10:38.025Z,97.70
2018-05-17T19:13:05.524Z,97.70
2018-05-17T19:15:32.976Z,97.70
2018-05-17T19:18:01.216Z,97.80
2018-05-17T19:20:28.716Z,97.80
2018-05-17T19:22:56.156Z,97.90
2018-05-17T19:25:23.629Z,97.90
2018-05-17T19:27:51.884Z,97.80
2018-05-17T19:30:19.346Z,97.50
2018-05-17T19:32:46.839Z,98.10
2018-05-17T19:35:15.080Z,98.00
2018-05-17T19:37:42.558Z,98.00
2018-05-17T19:40:10.052Z,98.10
2018-05-17T19:42:38.307Z,98.60
2018-05-17T19:45:05.773Z,98.50
2018-05-17T19:47:33.250Z,98.70
2018-05-17T19:50:01.471Z,98.60
2018-05-17T19:52:28.954Z,98.60
2018-05-17T19:54:56.408Z,99.10
2018-05-17T19:57:23.904Z,99.40
2018-05-17T19:59:51.386Z,99.10
2018-05-17T20:02:19.654Z,98.90
2018-05-17T20:04:47.161Z,98.90
2018-05-17T20:07:14.640Z,98.60
2018-05-17T20:09:42.120Z,99.10
2018-05-17T20:12:09.652Z,99.20
2018-05-17T20:14:37.107Z,99.30
2018-05-17T20:17:04.548Z,99.80
2018-05-17T20:19:32.787Z,99.80
2018-05-17T20:22:00.248Z,99.70
2018-05-17T20:24:27.712Z,99.90
2018-05-17T20:26:55.163Z,99.90
2018-05-17T20:29:22.681Z,99.90
2018-05-17T20:31:50.093Z,99.90
2018-05-17T20:34:17.553Z,99.90
2018-05-17T20:36:45.067Z,99.90
2018-05-17T20:39:12.485Z,99.90
2018-05-17T20:41:39.926Z,99.90
2018-05-17T20:44:07.384Z,99.90
2018-05-17T20:46:34.860Z,99.90
2018-05-17T20:49:03.146Z,99.90
2018-05-17T20:51:30.612Z,99.80
2018-05-17T20:53:58.072Z,99.70
2018-05-17T20:56:25.533Z,99.90
2018-05-17T20:58:52.997Z,99.90
2018-05-17T21:01:20.460Z,99.90
2018-05-17T21:03:48.921Z,99.90
2018-05-17T21:06:16.406Z,99.90
2018-05-17T21:08:43.882Z,99.90
2018-05-17T21:11:11.362Z,99.90
2018-05-17T21:13:38.828Z,99.90
2018-05-17T21:16:06.294Z,99.90
2018-05-17T21:18:33.749Z,99.90
2018-05-17T21:21:01.270Z,99.90
2018-05-17T21:23:29.465Z,99.90
2018-05-17T21:25:57.695Z,99.90
2018-05-17T21:28:25.926Z,99.90
2018-05-17T21:30:53.376Z,99.90
2018-05-17T21:33:20.828Z,99.90
2018-05-17T21:35:48.293Z,99.90
2018-05-17T21:38:15.751Z,99.90
2018-05-17T21:40:43.209Z,99.90
2018-05-17T21:43:10.675Z,99.90
2018-05-17T21:45:38.137Z,99.90
2018-05-17T21:48:05.575Z,99.90
2018-05-17T21:50:33.803Z,99.90
2018-05-17T21:53:01.254Z,99.90
2018-05-17T21:55:28.786Z,99.90
2018-05-17T21:57:56.168Z,99.90
2018-05-17T22:00:23.628Z,99.90
2018-05-17T22:02:51.074Z,99.90
2018-05-17T22:05:18.557Z,99.90
2018-05-17T22:07:46.010Z,99.90
2018-05-17T22:10:13.471Z,99.90
2018-05-17T22:12:40.900Z,99.90
2018-05-17T22:15:09.118Z,99.90
2018-05-17T22:17:36.583Z,99.90
2018-05-17T22:20:04.042Z,99.90
2018-05-17T22:22:31.484Z,99.90
2018-05-17T22:24:59.696Z,99.90
2018-05-17T22:27:27.152Z,99.90
2018-05-17T22:29:54.612Z,99.90
2018-05-17T22:32:22.077Z,99.90
2018-05-17T22:34:49.534Z,99.90
2018-05-17T22:37:17.005Z,99.90
2018-05-17T22:39:44.463Z,99.90
2018-05-17T22:42:11.928Z,99.90
2018-05-17T22:44:39.381Z,99.90
2018-05-17T22:47:07.662Z,99.90
2018-05-17T22:49:35.128Z,99.90
2018-05-17T22:52:02.580Z,99.90
2018-05-17T22:54:30.032Z,99.90
2018-05-17T22:57:10.080Z,99.90
2018-05-17T22:59:38.291Z,99.90
2018-05-17T23:02:05.760Z,99.90
2018-05-17T23:04:33.204Z,99.90
2018-05-17T23:07:00.666Z,99.90
2018-05-17T23:09:28.144Z,99.90
2018-05-17T23:11:55.604Z,99.90
2018-05-17T23:14:23.057Z,99.90
2018-05-17T23:16:50.523Z,99.90
2018-05-17T23:19:17.968Z,99.90
2018-05-17T23:21:45.440Z,99.90
2018-05-17T23:24:12.889Z,99.90
2018-05-17T23:26:40.348Z,99.90
2018-05-17T23:29:08.573Z,99.90
2018-05-17T23:31:36.008Z,99.90
2018-05-17T23:34:03.473Z,99.90
2018-05-17T23:36:30.933Z,99.90
2018-05-17T23:38:58.401Z,99.90
2018-05-17T23:41:34.644Z,99.90
2018-05-17T23:44:02.096Z,99.90
2018-05-17T23:46:30.308Z,99.90
2018-05-17T23:48:57.761Z,99.90
2018-05-17T23:51:25.268Z,99.90
2018-05-17T23:53:52.664Z,99.90
2018-05-17T23:56:20.117Z,99.90
2018-05-17T23:58:47.575Z,99.90
